sensor_id;sensor_type;location;lat;lon;timestamp;pressure;altitude;pressure_sealevel;temperature;humidity
27220;BME280;45274;52.266;10.790;2023-11-19T00:00:34;99798.78;;;4.70;100.00
27220;BME280;45274;52.266;10.790;2023-11-19T00:02:59;99798.78;;;4.70;100.00
27220;BME280;45274;52.266;10.790;2023-11-19T00:05:25;99785.28;;;4.70;100.00
27220;BME280;45274;52.266;10.790;2023-11-19T00:07:50;99785.28;;;4.70;100.00
27220;BME280;45274;52.266;10.790;2023-11-19T00:10:16;99785.28;;;4.70;100.00
27220;BME280;45274;52.266;10.790;2023-11-19T00:12:45;99785.28;;;4.70;100.00
27220;BME280;45274;52.266;10.790;2023-11-19T00:15:12;99785.28;;;4.70;100.00
27220;BME280;45274;52.266;10.790;2023-11-19T00:17:41;99785.28;;;4.70;100.00
27220;BME280;45274;52.266;10.790;2023-11-19T00:20:17;99785.28;;;4.70;100.00
27220;BME280;45274;52.266;10.790;2023-11-19T00:22:43;99785.28;;;4.70;100.00
27220;BME280;45274;52.266;10.790;2023-11-19T00:25:09;99785.28;;;4.70;100.00
27220;BME280;45274;52.266;10.790;2023-11-19T00:27:35;99785.28;;;4.70;100.00
27220;BME280;45274;52.266;10.790;2023-11-19T00:30:00;99785.28;;;4.70;100.00
27220;BME280;45274;52.266;10.790;2023-11-19T00:32:26;99785.28;;;4.70;100.00
27220;BME280;45274;52.266;10.790;2023-11-19T00:34:51;99785.28;;;4.70;100.00
27220;BME280;45274;52.266;10.790;2023-11-19T00:37:17;99785.28;;;4.70;100.00
27220;BME280;45274;52.266;10.790;2023-11-19T00:39:43;99719.22;;;4.95;100.00
27220;BME280;45274;52.266;10.790;2023-11-19T00:42:11;99719.22;;;4.95;100.00
27220;BME280;45274;52.266;10.790;2023-11-19T00:44:36;99719.22;;;4.95;100.00
27220;BME280;45274;52.266;10.790;2023-11-19T00:47:02;99699.53;;;4.98;100.00
27220;BME280;45274;52.266;10.790;2023-11-19T00:49:28;99699.53;;;4.98;100.00
27220;BME280;45274;52.266;10.790;2023-11-19T00:51:53;99699.53;;;4.98;100.00
27220;BME280;45274;52.266;10.790;2023-11-19T00:54:18;99699.53;;;4.98;100.00
27220;BME280;45274;52.266;10.790;2023-11-19T00:56:44;99699.53;;;4.98;100.00
27220;BME280;45274;52.266;10.790;2023-11-19T00:59:10;99669.88;;;4.99;100.00
27220;BME280;45274;52.266;10.790;2023-11-19T01:01:35;99660.63;;;4.98;100.00
27220;BME280;45274;52.266;10.790;2023-11-19T01:04:01;99658.91;;;4.98;100.00
27220;BME280;45274;52.266;10.790;2023-11-19T01:06:30;99660.28;;;5.02;100.00
27220;BME280;45274;52.266;10.790;2023-11-19T01:08:56;99641.94;;;4.99;100.00
27220;BME280;45274;52.266;10.790;2023-11-19T01:11:22;99638.47;;;5.00;100.00
27220;BME280;45274;52.266;10.790;2023-11-19T01:13:48;99629.25;;;4.99;100.00
27220;BME280;45274;52.266;10.790;2023-11-19T01:16:14;99627.28;;;5.02;100.00
27220;BME280;45274;52.266;10.790;2023-11-19T01:18:39;99626.50;;;5.02;100.00
27220;BME280;45274;52.266;10.790;2023-11-19T01:21:05;99627.28;;;5.02;100.00
27220;BME280;45274;52.266;10.790;2023-11-19T01:23:30;99618.31;;;5.09;100.00
27220;BME280;45274;52.266;10.790;2023-11-19T01:25:56;99616.81;;;5.07;100.00
27220;BME280;45274;52.266;10.790;2023-11-19T01:28:21;99601.66;;;5.05;100.00
27220;BME280;45274;52.266;10.790;2023-11-19T01:30:47;99597.88;;;5.11;100.00
27220;BME280;45274;52.266;10.790;2023-11-19T01:33:15;99598.59;;;5.13;100.00
27220;BME280;45274;52.266;10.790;2023-11-19T01:35:40;99590.53;;;5.19;100.00
27220;BME280;45274;52.266;10.790;2023-11-19T01:38:06;99587.28;;;5.17;100.00
27220;BME280;45274;52.266;10.790;2023-11-19T01:40:33;99569.72;;;5.14;100.00
27220;BME280;45274;52.266;10.790;2023-11-19T01:42:59;99574.72;;;5.15;100.00
27220;BME280;45274;52.266;10.790;2023-11-19T01:45:28;99574.72;;;5.15;100.00
27220;BME280;45274;52.266;10.790;2023-11-19T01:47:59;99568.84;;;5.26;100.00
27220;BME280;45274;52.266;10.790;2023-11-19T01:50:25;99569.63;;;5.15;100.00
27220;BME280;45274;52.266;10.790;2023-11-19T01:52:55;99569.63;;;5.15;100.00
27220;BME280;45274;52.266;10.790;2023-11-19T01:55:24;99550.47;;;5.23;100.00
27220;BME280;45274;52.266;10.790;2023-11-19T01:57:49;99550.47;;;5.23;100.00
27220;BME280;45274;52.266;10.790;2023-11-19T02:00:16;99536.59;;;5.15;100.00
27220;BME280;45274;52.266;10.790;2023-11-19T02:02:46;99537.19;;;5.19;100.00
27220;BME280;45274;52.266;10.790;2023-11-19T02:05:11;99527.06;;;5.30;100.00
27220;BME280;45274;52.266;10.790;2023-11-19T02:07:38;99527.06;;;5.30;100.00
27220;BME280;45274;52.266;10.790;2023-11-19T02:10:04;99516.56;;;5.35;100.00
27220;BME280;45274;52.266;10.790;2023-11-19T02:12:31;99516.56;;;5.35;100.00
27220;BME280;45274;52.266;10.790;2023-11-19T02:15:01;99502.94;;;5.36;100.00
27220;BME280;45274;52.266;10.790;2023-11-19T02:17:29;99496.44;;;5.32;100.00
27220;BME280;45274;52.266;10.790;2023-11-19T02:19:56;99486.53;;;5.40;100.00
27220;BME280;45274;52.266;10.790;2023-11-19T02:22:22;99484.78;;;5.40;100.00
27220;BME280;45274;52.266;10.790;2023-11-19T02:24:50;99484.94;;;5.39;100.00
27220;BME280;45274;52.266;10.790;2023-11-19T02:27:30;99477.06;;;5.53;100.00
27220;BME280;45274;52.266;10.790;2023-11-19T02:29:56;99481.34;;;5.52;100.00
27220;BME280;45274;52.266;10.790;2023-11-19T02:32:23;99473.63;;;5.54;100.00
27220;BME280;45274;52.266;10.790;2023-11-19T02:34:48;99485.16;;;5.47;100.00
27220;BME280;45274;52.266;10.790;2023-11-19T02:37:14;99473.94;;;5.49;100.00
27220;BME280;45274;52.266;10.790;2023-11-19T02:39:40;99468.63;;;5.52;100.00
27220;BME280;45274;52.266;10.790;2023-11-19T02:42:07;99467.13;;;5.61;100.00
27220;BME280;45274;52.266;10.790;2023-11-19T02:44:33;99466.09;;;5.74;100.00
27220;BME280;45274;52.266;10.790;2023-11-19T02:46:59;99466.09;;;5.74;100.00
27220;BME280;45274;52.266;10.790;2023-11-19T02:49:25;99469.34;;;5.77;100.00
27220;BME280;45274;52.266;10.790;2023-11-19T02:51:50;99436.84;;;5.80;100.00
27220;BME280;45274;52.266;10.790;2023-11-19T02:54:16;99447.00;;;5.80;100.00
27220;BME280;45274;52.266;10.790;2023-11-19T02:56:44;99443.69;;;5.91;100.00
27220;BME280;45274;52.266;10.790;2023-11-19T02:59:13;99424.94;;;6.03;100.00
27220;BME280;45274;52.266;10.790;2023-11-19T03:01:52;99436.34;;;6.19;100.00
27220;BME280;45274;52.266;10.790;2023-11-19T03:04:18;99418.81;;;6.37;100.00
27220;BME280;45274;52.266;10.790;2023-11-19T03:06:45;99414.47;;;6.49;100.00
27220;BME280;45274;52.266;10.790;2023-11-19T03:09:11;99408.22;;;6.73;100.00
27220;BME280;45274;52.266;10.790;2023-11-19T03:11:37;99392.00;;;6.95;100.00
27220;BME280;45274;52.266;10.790;2023-11-19T03:14:02;99379.75;;;7.10;100.00
27220;BME280;45274;52.266;10.790;2023-11-19T03:16:30;99369.78;;;7.37;100.00
27220;BME280;45274;52.266;10.790;2023-11-19T03:18:56;99352.38;;;7.52;100.00
27220;BME280;45274;52.266;10.790;2023-11-19T03:21:29;99353.47;;;7.59;100.00
27220;BME280;45274;52.266;10.790;2023-11-19T03:23:54;99335.88;;;7.65;100.00
27220;BME280;45274;52.266;10.790;2023-11-19T03:26:19;99325.84;;;7.73;100.00
27220;BME280;45274;52.266;10.790;2023-11-19T03:28:45;99345.69;;;7.79;100.00
27220;BME280;45274;52.266;10.790;2023-11-19T03:31:10;99328.94;;;7.86;100.00
27220;BME280;45274;52.266;10.790;2023-11-19T03:33:36;99323.31;;;7.92;100.00
27220;BME280;45274;52.266;10.790;2023-11-19T03:36:02;99321.81;;;7.99;100.00
27220;BME280;45274;52.266;10.790;2023-11-19T03:38:28;99318.72;;;8.06;100.00
27220;BME280;45274;52.266;10.790;2023-11-19T03:40:53;99312.44;;;8.10;100.00
27220;BME280;45274;52.266;10.790;2023-11-19T03:43:18;99312.00;;;8.14;100.00
27220;BME280;45274;52.266;10.790;2023-11-19T03:45:44;99303.81;;;8.20;100.00
27220;BME280;45274;52.266;10.790;2023-11-19T03:48:10;99294.16;;;8.33;100.00
27220;BME280;45274;52.266;10.790;2023-11-19T03:50:35;99292.41;;;8.34;100.00
27220;BME280;45274;52.266;10.790;2023-11-19T03:53:00;99287.69;;;8.39;100.00
27220;BME280;45274;52.266;10.790;2023-11-19T03:55:26;99280.84;;;8.39;100.00
27220;BME280;45274;52.266;10.790;2023-11-19T03:57:51;99280.84;;;8.39;100.00
27220;BME280;45274;52.266;10.790;2023-11-19T04:00:17;99277.06;;;8.43;100.00
27220;BME280;45274;52.266;10.790;2023-11-19T04:02:42;99290.75;;;8.52;100.00
27220;BME280;45274;52.266;10.790;2023-11-19T04:05:08;99294.78;;;8.54;100.00
27220;BME280;45274;52.266;10.790;2023-11-19T04:07:35;99302.56;;;8.63;100.00
27220;BME280;45274;52.266;10.790;2023-11-19T04:10:00;99298.50;;;8.70;100.00
27220;BME280;45274;52.266;10.790;2023-11-19T04:12:26;99290.84;;;8.70;100.00
27220;BME280;45274;52.266;10.790;2023-11-19T04:14:51;99290.84;;;8.70;100.00
27220;BME280;45274;52.266;10.790;2023-11-19T04:17:16;99290.00;;;8.79;100.00
27220;BME280;45274;52.266;10.790;2023-11-19T04:19:42;99270.63;;;8.86;100.00
27220;BME280;45274;52.266;10.790;2023-11-19T04:22:08;99270.63;;;8.86;100.00
27220;BME280;45274;52.266;10.790;2023-11-19T04:24:34;99284.59;;;8.91;100.00
27220;BME280;45274;52.266;10.790;2023-11-19T04:27:00;99284.59;;;8.91;100.00
27220;BME280;45274;52.266;10.790;2023-11-19T04:29:25;99284.59;;;8.91;100.00
27220;BME280;45274;52.266;10.790;2023-11-19T04:31:50;99284.59;;;8.91;100.00
27220;BME280;45274;52.266;10.790;2023-11-19T04:34:16;99284.59;;;8.91;100.00
27220;BME280;45274;52.266;10.790;2023-11-19T04:36:41;99284.59;;;8.91;100.00
27220;BME280;45274;52.266;10.790;2023-11-19T04:39:07;99285.75;;;8.97;100.00
27220;BME280;45274;52.266;10.790;2023-11-19T04:41:49;99280.66;;;8.97;100.00
27220;BME280;45274;52.266;10.790;2023-11-19T04:44:16;99280.66;;;8.97;100.00
27220;BME280;45274;52.266;10.790;2023-11-19T04:46:42;99280.66;;;8.97;100.00
27220;BME280;45274;52.266;10.790;2023-11-19T04:49:14;99280.66;;;8.97;100.00
27220;BME280;45274;52.266;10.790;2023-11-19T04:51:44;99280.66;;;8.97;100.00
27220;BME280;45274;52.266;10.790;2023-11-19T04:54:10;99286.22;;;9.10;100.00
27220;BME280;45274;52.266;10.790;2023-11-19T04:56:36;99286.22;;;9.10;100.00
27220;BME280;45274;52.266;10.790;2023-11-19T04:59:02;99286.22;;;9.10;100.00
27220;BME280;45274;52.266;10.790;2023-11-19T05:01:28;99286.22;;;9.10;100.00
27220;BME280;45274;52.266;10.790;2023-11-19T05:03:53;99286.22;;;9.10;100.00
27220;BME280;45274;52.266;10.790;2023-11-19T05:06:19;99286.22;;;9.10;100.00
27220;BME280;45274;52.266;10.790;2023-11-19T05:08:45;99286.22;;;9.10;100.00
27220;BME280;45274;52.266;10.790;2023-11-19T05:11:11;99286.22;;;9.10;100.00
27220;BME280;45274;52.266;10.790;2023-11-19T05:13:43;99286.22;;;9.10;100.00
27220;BME280;45274;52.266;10.790;2023-11-19T05:16:11;99286.22;;;9.10;100.00
27220;BME280;45274;52.266;10.790;2023-11-19T05:18:39;99286.22;;;9.10;100.00
27220;BME280;45274;52.266;10.790;2023-11-19T05:21:05;99286.22;;;9.10;100.00
27220;BME280;45274;52.266;10.790;2023-11-19T05:23:30;99286.22;;;9.10;100.00
27220;BME280;45274;52.266;10.790;2023-11-19T05:25:56;99286.22;;;9.10;100.00
27220;BME280;45274;52.266;10.790;2023-11-19T05:28:23;99286.22;;;9.10;100.00
27220;BME280;45274;52.266;10.790;2023-11-19T05:30:49;99286.22;;;9.10;100.00
27220;BME280;45274;52.266;10.790;2023-11-19T05:33:15;99286.22;;;9.10;100.00
27220;BME280;45274;52.266;10.790;2023-11-19T05:35:40;99291.09;;;9.31;100.00
27220;BME280;45274;52.266;10.790;2023-11-19T05:38:06;99291.09;;;9.31;100.00
27220;BME280;45274;52.266;10.790;2023-11-19T05:40:31;99291.09;;;9.31;100.00
27220;BME280;45274;52.266;10.790;2023-11-19T05:42:58;99275.59;;;9.32;100.00
27220;BME280;45274;52.266;10.790;2023-11-19T05:45:23;99275.59;;;9.32;100.00
27220;BME280;45274;52.266;10.790;2023-11-19T05:47:48;99275.59;;;9.32;100.00
27220;BME280;45274;52.266;10.790;2023-11-19T05:50:14;99275.59;;;9.32;100.00
27220;BME280;45274;52.266;10.790;2023-11-19T05:52:39;99275.59;;;9.32;100.00
27220;BME280;45274;52.266;10.790;2023-11-19T05:55:05;99275.59;;;9.32;100.00
27220;BME280;45274;52.266;10.790;2023-11-19T05:57:35;99262.59;;;9.26;100.00
27220;BME280;45274;52.266;10.790;2023-11-19T06:00:00;99262.59;;;9.26;100.00
27220;BME280;45274;52.266;10.790;2023-11-19T06:02:25;99247.47;;;9.15;100.00
27220;BME280;45274;52.266;10.790;2023-11-19T06:04:53;99247.47;;;9.15;100.00
27220;BME280;45274;52.266;10.790;2023-11-19T06:07:18;99247.47;;;9.15;100.00
27220;BME280;45274;52.266;10.790;2023-11-19T06:09:44;99247.47;;;9.15;100.00
27220;BME280;45274;52.266;10.790;2023-11-19T06:12:09;99247.47;;;9.15;100.00
27220;BME280;45274;52.266;10.790;2023-11-19T06:14:35;99247.47;;;9.15;100.00
27220;BME280;45274;52.266;10.790;2023-11-19T06:17:00;99258.41;;;9.07;100.00
27220;BME280;45274;52.266;10.790;2023-11-19T06:19:25;99258.69;;;9.04;100.00
27220;BME280;45274;52.266;10.790;2023-11-19T06:21:51;99258.69;;;9.04;100.00
27220;BME280;45274;52.266;10.790;2023-11-19T06:24:16;99258.69;;;9.04;100.00
27220;BME280;45274;52.266;10.790;2023-11-19T06:26:42;99258.69;;;9.04;100.00
27220;BME280;45274;52.266;10.790;2023-11-19T06:29:07;99254.66;;;9.29;100.00
27220;BME280;45274;52.266;10.790;2023-11-19T06:31:32;99254.66;;;9.29;100.00
27220;BME280;45274;52.266;10.790;2023-11-19T06:33:58;64198.78;;;-141.81;100.00
27220;BME280;45274;52.266;10.790;2023-11-19T06:38:49;99254.66;;;9.29;100.00
27220;BME280;45274;52.266;10.790;2023-11-19T06:41:14;99254.66;;;9.29;100.00
27220;BME280;45274;52.266;10.790;2023-11-19T06:43:40;99258.88;;;9.55;100.00
27220;BME280;45274;52.266;10.790;2023-11-19T06:46:05;99264.53;;;9.59;100.00
27220;BME280;45274;52.266;10.790;2023-11-19T06:48:34;99267.88;;;9.59;100.00
27220;BME280;45274;52.266;10.790;2023-11-19T06:51:00;99250.28;;;9.56;100.00
27220;BME280;45274;52.266;10.790;2023-11-19T06:53:25;99251.91;;;9.57;100.00
27220;BME280;45274;52.266;10.790;2023-11-19T06:55:53;99260.66;;;9.55;100.00
27220;BME280;45274;52.266;10.790;2023-11-19T06:58:18;99260.66;;;9.55;100.00
27220;BME280;45274;52.266;10.790;2023-11-19T07:00:44;99260.66;;;9.55;100.00
27220;BME280;45274;52.266;10.790;2023-11-19T07:03:11;99260.66;;;9.55;100.00
27220;BME280;45274;52.266;10.790;2023-11-19T07:05:36;99260.66;;;9.55;100.00
27220;BME280;45274;52.266;10.790;2023-11-19T07:08:04;99260.66;;;9.55;100.00
27220;BME280;45274;52.266;10.790;2023-11-19T07:10:29;99260.66;;;9.55;100.00
27220;BME280;45274;52.266;10.790;2023-11-19T07:12:56;99260.66;;;9.55;100.00
27220;BME280;45274;52.266;10.790;2023-11-19T07:15:21;99260.66;;;-141.81;100.00
27220;BME280;45274;52.266;10.790;2023-11-19T07:17:46;99260.66;;;9.55;100.00
27220;BME280;45274;52.266;10.790;2023-11-19T07:20:13;99260.66;;;9.55;100.00
27220;BME280;45274;52.266;10.790;2023-11-19T07:22:43;99260.66;;;9.55;100.00
27220;BME280;45274;52.266;10.790;2023-11-19T07:25:12;99260.66;;;9.55;100.00
27220;BME280;45274;52.266;10.790;2023-11-19T07:27:40;99260.66;;;9.55;100.00
27220;BME280;45274;52.266;10.790;2023-11-19T07:30:06;99260.66;;;9.55;100.00
27220;BME280;45274;52.266;10.790;2023-11-19T07:32:34;99260.66;;;9.55;100.00
27220;BME280;45274;52.266;10.790;2023-11-19T07:35:00;99260.66;;;9.55;100.00
27220;BME280;45274;52.266;10.790;2023-11-19T07:37:26;99260.66;;;9.55;100.00
27220;BME280;45274;52.266;10.790;2023-11-19T07:39:51;99286.63;;;9.78;100.00
27220;BME280;45274;52.266;10.790;2023-11-19T07:42:17;99286.63;;;9.78;100.00
27220;BME280;45274;52.266;10.790;2023-11-19T07:44:43;99286.63;;;9.78;100.00
27220;BME280;45274;52.266;10.790;2023-11-19T07:47:08;99286.63;;;9.78;100.00
27220;BME280;45274;52.266;10.790;2023-11-19T07:49:34;99286.63;;;9.78;100.00
27220;BME280;45274;52.266;10.790;2023-11-19T07:51:59;99286.63;;;9.78;100.00
27220;BME280;45274;52.266;10.790;2023-11-19T07:54:25;99286.63;;;9.78;100.00
27220;BME280;45274;52.266;10.790;2023-11-19T07:56:50;99286.63;;;9.78;100.00
27220;BME280;45274;52.266;10.790;2023-11-19T07:59:16;99286.63;;;9.78;100.00
27220;BME280;45274;52.266;10.790;2023-11-19T08:01:41;99286.63;;;9.78;100.00
27220;BME280;45274;52.266;10.790;2023-11-19T08:04:06;99286.63;;;9.78;100.00
27220;BME280;45274;52.266;10.790;2023-11-19T08:06:32;99286.63;;;9.78;100.00
27220;BME280;45274;52.266;10.790;2023-11-19T08:08:57;99286.63;;;9.78;100.00
27220;BME280;45274;52.266;10.790;2023-11-19T08:13:48;64198.78;;;-141.81;nan
27220;BME280;45274;52.266;10.790;2023-11-19T08:16:14;64198.78;;;-141.81;100.00
27220;BME280;45274;52.266;10.790;2023-11-19T08:18:42;64198.78;;;-141.81;100.00
27220;BME280;45274;52.266;10.790;2023-11-19T08:21:08;64198.78;;;-141.81;100.00
27220;BME280;45274;52.266;10.790;2023-11-19T08:23:34;64198.78;;;-141.81;100.00
27220;BME280;45274;52.266;10.790;2023-11-19T08:25:59;64198.78;;;-141.81;100.00
27220;BME280;45274;52.266;10.790;2023-11-19T08:28:25;64198.78;;;-141.81;100.00
27220;BME280;45274;52.266;10.790;2023-11-19T08:30:50;64198.78;;;-141.81;100.00
27220;BME280;45274;52.266;10.790;2023-11-19T08:33:16;64198.78;;;-141.81;100.00
27220;BME280;45274;52.266;10.790;2023-11-19T08:35:42;64198.78;;;-141.81;100.00
27220;BME280;45274;52.266;10.790;2023-11-19T08:38:07;64198.78;;;-141.81;100.00
27220;BME280;45274;52.266;10.790;2023-11-19T08:40:33;99315.75;;;10.38;100.00
27220;BME280;45274;52.266;10.790;2023-11-19T08:42:58;99307.25;;;10.37;100.00
27220;BME280;45274;52.266;10.790;2023-11-19T08:45:25;99316.91;;;10.43;100.00
27220;BME280;45274;52.266;10.790;2023-11-19T08:47:50;99318.06;;;10.49;100.00
27220;BME280;45274;52.266;10.790;2023-11-19T08:50:15;99313.59;;;10.51;100.00
27220;BME280;45274;52.266;10.790;2023-11-19T08:52:41;99309.47;;;10.58;100.00
27220;BME280;45274;52.266;10.790;2023-11-19T08:55:07;99311.94;;;10.67;100.00
27220;BME280;45274;52.266;10.790;2023-11-19T08:57:32;99316.47;;;10.73;100.00
27220;BME280;45274;52.266;10.790;2023-11-19T08:59:58;99320.19;;;10.79;100.00
27220;BME280;45274;52.266;10.790;2023-11-19T09:02:24;99322.91;;;10.86;100.00
27220;BME280;45274;52.266;10.790;2023-11-19T09:04:49;99314.31;;;10.95;100.00
27220;BME280;45274;52.266;10.790;2023-11-19T09:07:15;99331.16;;;10.97;100.00
27220;BME280;45274;52.266;10.790;2023-11-19T09:09:40;99332.47;;;11.01;100.00
27220;BME280;45274;52.266;10.790;2023-11-19T09:12:06;99335.38;;;11.14;100.00
27220;BME280;45274;52.266;10.790;2023-11-19T09:14:31;99337.81;;;11.16;100.00
27220;BME280;45274;52.266;10.790;2023-11-19T09:16:57;99351.47;;;11.24;100.00
27220;BME280;45274;52.266;10.790;2023-11-19T09:19:23;99342.69;;;11.35;100.00
27220;BME280;45274;52.266;10.790;2023-11-19T09:21:49;99351.38;;;11.42;100.00
27220;BME280;45274;52.266;10.790;2023-11-19T09:24:15;99355.59;;;11.51;100.00
27220;BME280;45274;52.266;10.790;2023-11-19T09:26:40;99364.91;;;11.60;100.00
27220;BME280;45274;52.266;10.790;2023-11-19T09:29:07;99349.03;;;11.57;100.00
27220;BME280;45274;52.266;10.790;2023-11-19T09:31:33;99349.03;;;11.57;100.00
27220;BME280;45274;52.266;10.790;2023-11-19T09:33:58;99358.81;;;11.61;100.00
27220;BME280;45274;52.266;10.790;2023-11-19T09:36:24;99363.13;;;11.53;100.00
27220;BME280;45274;52.266;10.790;2023-11-19T09:38:49;99356.00;;;11.38;100.00
27220;BME280;45274;52.266;10.790;2023-11-19T09:41:15;99363.19;;;11.27;100.00
27220;BME280;45274;52.266;10.790;2023-11-19T09:43:41;99370.38;;;11.23;100.00
27220;BME280;45274;52.266;10.790;2023-11-19T09:46:09;99374.56;;;11.24;100.00
27220;BME280;45274;52.266;10.790;2023-11-19T09:48:37;99369.94;;;11.28;100.00
27220;BME280;45274;52.266;10.790;2023-11-19T09:51:04;99368.97;;;11.29;100.00
27220;BME280;45274;52.266;10.790;2023-11-19T09:53:30;99368.97;;;11.29;100.00
27220;BME280;45274;52.266;10.790;2023-11-19T09:55:59;99368.97;;;11.29;100.00
27220;BME280;45274;52.266;10.790;2023-11-19T09:58:26;99368.97;;;11.29;100.00
27220;BME280;45274;52.266;10.790;2023-11-19T10:00:51;99368.97;;;11.29;100.00
27220;BME280;45274;52.266;10.790;2023-11-19T10:03:17;99376.50;;;11.30;100.00
27220;BME280;45274;52.266;10.790;2023-11-19T10:05:43;99367.19;;;11.29;100.00
27220;BME280;45274;52.266;10.790;2023-11-19T10:08:08;99367.19;;;11.29;100.00
27220;BME280;45274;52.266;10.790;2023-11-19T10:10:34;99367.19;;;11.29;100.00
27220;BME280;45274;52.266;10.790;2023-11-19T10:13:00;99358.66;;;11.63;100.00
27220;BME280;45274;52.266;10.790;2023-11-19T10:15:26;99358.66;;;11.63;100.00
27220;BME280;45274;52.266;10.790;2023-11-19T10:17:55;99359.94;;;11.67;100.00
27220;BME280;45274;52.266;10.790;2023-11-19T10:20:20;99364.75;;;11.62;100.00
27220;BME280;45274;52.266;10.790;2023-11-19T10:22:46;99369.69;;;11.55;100.00
27220;BME280;45274;52.266;10.790;2023-11-19T10:25:25;99370.56;;;11.72;100.00
27220;BME280;45274;52.266;10.790;2023-11-19T10:27:52;99370.56;;;11.72;100.00
27220;BME280;45274;52.266;10.790;2023-11-19T10:30:21;99363.53;;;11.82;100.00
27220;BME280;45274;52.266;10.790;2023-11-19T10:33:11;99363.53;;;11.82;100.00
27220;BME280;45274;52.266;10.790;2023-11-19T10:35:58;99370.63;;;11.96;100.00
27220;BME280;45274;52.266;10.790;2023-11-19T10:38:24;99376.88;;;11.93;100.00
27220;BME280;45274;52.266;10.790;2023-11-19T10:40:53;99376.88;;;11.93;100.00
27220;BME280;45274;52.266;10.790;2023-11-19T10:43:20;99376.88;;;11.93;100.00
27220;BME280;45274;52.266;10.790;2023-11-19T10:45:47;99376.88;;;11.93;100.00
27220;BME280;45274;52.266;10.790;2023-11-19T10:50:39;99376.88;;;-141.81;100.00
27220;BME280;45274;52.266;10.790;2023-11-19T10:53:06;99376.88;;;11.93;100.00
27220;BME280;45274;52.266;10.790;2023-11-19T10:55:39;99376.88;;;11.93;100.00
27220;BME280;45274;52.266;10.790;2023-11-19T10:58:06;99376.88;;;11.93;100.00
27220;BME280;45274;52.266;10.790;2023-11-19T11:03:10;99376.88;;;11.93;100.00
27220;BME280;45274;52.266;10.790;2023-11-19T11:05:35;99376.88;;;11.93;100.00
27220;BME280;45274;52.266;10.790;2023-11-19T11:08:05;99376.88;;;11.93;100.00
27220;BME280;45274;52.266;10.790;2023-11-19T11:10:34;99376.88;;;-141.81;100.00
27220;BME280;45274;52.266;10.790;2023-11-19T11:13:03;99376.88;;;11.93;100.00
27220;BME280;45274;52.266;10.790;2023-11-19T11:15:30;99376.88;;;11.93;100.00
27220;BME280;45274;52.266;10.790;2023-11-19T11:18:00;99376.88;;;11.93;100.00
27220;BME280;45274;52.266;10.790;2023-11-19T11:20:28;99372.72;;;12.73;93.15
27220;BME280;45274;52.266;10.790;2023-11-19T11:23:11;99384.44;;;12.76;92.41
27220;BME280;45274;52.266;10.790;2023-11-19T11:26:06;99381.38;;;12.80;90.96
27220;BME280;45274;52.266;10.790;2023-11-19T11:39:35;76874.72;;;-141.81;92.88
27220;BME280;45274;52.266;10.790;2023-11-19T11:45:18;99397.78;;;12.15;94.68
27220;BME280;45274;52.266;10.790;2023-11-19T11:50:19;99404.63;;;11.90;96.12
27220;BME280;45274;52.266;10.790;2023-11-19T11:55:26;99393.56;;;11.89;96.02
27220;BME280;45274;52.266;10.790;2023-11-19T11:57:53;99389.28;;;12.14;97.31
27220;BME280;45274;52.266;10.790;2023-11-19T12:00:38;99389.28;;;12.14;97.31
27220;BME280;45274;52.266;10.790;2023-11-19T12:03:06;99383.97;;;12.24;96.44
27220;BME280;45274;52.266;10.790;2023-11-19T12:05:32;99379.50;;;12.18;96.75
27220;BME280;45274;52.266;10.790;2023-11-19T12:08:10;99383.50;;;12.20;96.70
27220;BME280;45274;52.266;10.790;2023-11-19T12:10:44;99395.38;;;12.13;96.70
27220;BME280;45274;52.266;10.790;2023-11-19T12:13:10;99378.81;;;12.08;97.49
27220;BME280;45274;52.266;10.790;2023-11-19T12:18:23;99374.97;;;12.04;97.72
27220;BME280;45274;52.266;10.790;2023-11-19T12:20:48;99376.09;;;12.01;98.30
27220;BME280;45274;52.266;10.790;2023-11-19T12:23:14;99378.03;;;12.07;98.42
27220;BME280;45274;52.266;10.790;2023-11-19T12:25:40;99372.44;;;12.12;98.32
27220;BME280;45274;52.266;10.790;2023-11-19T12:28:11;99380.13;;;12.12;97.24
27220;BME280;45274;52.266;10.790;2023-11-19T12:30:36;99380.13;;;12.12;97.24
27220;BME280;45274;52.266;10.790;2023-11-19T12:33:11;99380.13;;;12.12;97.24
27220;BME280;45274;52.266;10.790;2023-11-19T12:38:05;99366.94;;;11.99;95.26
27220;BME280;45274;52.266;10.790;2023-11-19T12:40:31;99367.09;;;11.97;95.40
27220;BME280;45274;52.266;10.790;2023-11-19T12:42:56;99381.22;;;12.01;94.83
27220;BME280;45274;52.266;10.790;2023-11-19T12:45:23;99377.38;;;12.13;94.86
27220;BME280;45274;52.266;10.790;2023-11-19T12:48:07;99378.69;;;12.25;95.15
27220;BME280;45274;52.266;10.790;2023-11-19T12:50:55;99392.81;;;12.21;94.39
27220;BME280;45274;52.266;10.790;2023-11-19T12:53:26;99387.66;;;12.21;94.74
27220;BME280;45274;52.266;10.790;2023-11-19T12:55:52;99389.78;;;12.18;95.48
27220;BME280;45274;52.266;10.790;2023-11-19T12:58:34;99381.56;;;12.06;95.51
27220;BME280;45274;52.266;10.790;2023-11-19T13:01:05;99388.78;;;12.11;96.57
27220;BME280;45274;52.266;10.790;2023-11-19T13:03:32;99386.72;;;12.14;95.67
27220;BME280;45274;52.266;10.790;2023-11-19T13:06:02;99386.72;;;12.14;95.67
27220;BME280;45274;52.266;10.790;2023-11-19T13:08:29;99393.47;;;12.31;94.67
27220;BME280;45274;52.266;10.790;2023-11-19T13:11:00;99399.88;;;12.27;95.24
27220;BME280;45274;52.266;10.790;2023-11-19T13:13:25;99384.28;;;12.21;96.12
27220;BME280;45274;52.266;10.790;2023-11-19T13:15:51;99383.16;;;12.15;94.94
27220;BME280;45274;52.266;10.790;2023-11-19T13:18:20;99387.84;;;12.12;93.89
27220;BME280;45274;52.266;10.790;2023-11-19T13:20:45;99382.69;;;12.12;94.63